sensor_id;sensor_type;location;lat;lon;timestamp;temperature;humidity
35277;DHT22;21401;50.878;8.050;2022-09-09T00:01:17;12.40;99.90
35277;DHT22;21401;50.878;8.050;2022-09-09T00:06:32;12.50;99.90
35277;DHT22;21401;50.878;8.050;2022-09-09T00:09:10;12.50;99.90
35277;DHT22;21401;50.878;8.050;2022-09-09T00:11:52;12.50;99.90
35277;DHT22;21401;50.878;8.050;2022-09-09T00:15:00;12.50;99.90
35277;DHT22;21401;50.878;8.050;2022-09-09T00:22:57;12.40;99.90
35277;DHT22;21401;50.878;8.050;2022-09-09T00:27:59;12.30;99.90
35277;DHT22;21401;50.878;8.050;2022-09-09T00:30:28;12.20;99.90
35277;DHT22;21401;50.878;8.050;2022-09-09T00:33:11;12.40;99.90
35277;DHT22;21401;50.878;8.050;2022-09-09T00:35:52;12.50;99.90
35277;DHT22;21401;50.878;8.050;2022-09-09T00:38:32;12.60;99.90
35277;DHT22;21401;50.878;8.050;2022-09-09T00:43:31;12.60;99.90
35277;DHT22;21401;50.878;8.050;2022-09-09T00:46:01;12.60;99.90
35277;DHT22;21401;50.878;8.050;2022-09-09T00:57:05;12.60;99.90
35277;DHT22;21401;50.878;8.050;2022-09-09T00:59:48;12.50;99.90
35277;DHT22;21401;50.878;8.050;2022-09-09T01:02:39;12.40;99.90
35277;DHT22;21401;50.878;8.050;2022-09-09T01:05:20;12.50;99.90
35277;DHT22;21401;50.878;8.050;2022-09-09T01:07:49;12.50;99.90
35277;DHT22;21401;50.878;8.050;2022-09-09T01:10:43;12.40;99.90
35277;DHT22;21401;50.878;8.050;2022-09-09T01:13:28;12.30;99.90
35277;DHT22;21401;50.878;8.050;2022-09-09T01:16:00;12.20;99.90
35277;DHT22;21401;50.878;8.050;2022-09-09T01:18:49;12.30;99.90
35277;DHT22;21401;50.878;8.050;2022-09-09T01:26:37;12.20;99.90
35277;DHT22;21401;50.878;8.050;2022-09-09T01:29:13;12.40;99.90
35277;DHT22;21401;50.878;8.050;2022-09-09T01:34:15;12.30;99.90
35277;DHT22;21401;50.878;8.050;2022-09-09T01:36:56;12.20;99.90
35277;DHT22;21401;50.878;8.050;2022-09-09T01:39:23;12.20;99.90
35277;DHT22;21401;50.878;8.050;2022-09-09T01:41:48;12.20;99.90
35277;DHT22;21401;50.878;8.050;2022-09-09T01:44:14;12.30;99.90
35277;DHT22;21401;50.878;8.050;2022-09-09T01:46:40;12.20;99.90
35277;DHT22;21401;50.878;8.050;2022-09-09T01:49:08;12.20;99.90
35277;DHT22;21401;50.878;8.050;2022-09-09T01:51:36;12.30;99.90
35277;DHT22;21401;50.878;8.050;2022-09-09T01:54:03;12.10;99.90
35277;DHT22;21401;50.878;8.050;2022-09-09T01:56:44;12.10;99.90
35277;DHT22;21401;50.878;8.050;2022-09-09T02:02:00;12.10;99.90
35277;DHT22;21401;50.878;8.050;2022-09-09T02:06:57;12.10;99.90
35277;DHT22;21401;50.878;8.050;2022-09-09T02:09:29;12.10;99.90
35277;DHT22;21401;50.878;8.050;2022-09-09T02:12:16;12.10;99.90
35277;DHT22;21401;50.878;8.050;2022-09-09T02:14:50;12.00;99.90
35277;DHT22;21401;50.878;8.050;2022-09-09T02:17:26;12.00;99.90
35277;DHT22;21401;50.878;8.050;2022-09-09T02:19:57;11.90;99.90
35277;DHT22;21401;50.878;8.050;2022-09-09T02:22:28;11.90;99.90
35277;DHT22;21401;50.878;8.050;2022-09-09T02:24:57;11.90;99.90
35277;DHT22;21401;50.878;8.050;2022-09-09T02:27:24;12.00;99.90
35277;DHT22;21401;50.878;8.050;2022-09-09T02:29:51;12.10;99.90
35277;DHT22;21401;50.878;8.050;2022-09-09T02:32:21;12.10;99.90
35277;DHT22;21401;50.878;8.050;2022-09-09T02:34:51;12.20;99.90
35277;DHT22;21401;50.878;8.050;2022-09-09T02:37:21;12.20;99.90
35277;DHT22;21401;50.878;8.050;2022-09-09T02:39:54;12.30;99.90
35277;DHT22;21401;50.878;8.050;2022-09-09T02:42:21;12.20;99.90
35277;DHT22;21401;50.878;8.050;2022-09-09T02:44:49;12.30;99.90
35277;DHT22;21401;50.878;8.050;2022-09-09T02:50:32;12.30;99.90
35277;DHT22;21401;50.878;8.050;2022-09-09T02:53:19;12.50;99.90
35277;DHT22;21401;50.878;8.050;2022-09-09T02:55:49;12.50;99.90
35277;DHT22;21401;50.878;8.050;2022-09-09T02:58:18;12.50;99.90
35277;DHT22;21401;50.878;8.050;2022-09-09T03:00:47;12.50;99.90
35277;DHT22;21401;50.878;8.050;2022-09-09T03:03:13;12.40;99.90
35277;DHT22;21401;50.878;8.050;2022-09-09T03:05:39;12.50;99.90
35277;DHT22;21401;50.878;8.050;2022-09-09T03:08:05;12.50;99.90
35277;DHT22;21401;50.878;8.050;2022-09-09T03:10:34;12.60;99.90
35277;DHT22;21401;50.878;8.050;2022-09-09T03:13:00;12.60;99.90
35277;DHT22;21401;50.878;8.050;2022-09-09T03:15:26;12.60;99.90
35277;DHT22;21401;50.878;8.050;2022-09-09T03:17:55;12.60;99.90
35277;DHT22;21401;50.878;8.050;2022-09-09T03:20:26;12.70;99.90
35277;DHT22;21401;50.878;8.050;2022-09-09T03:22:53;12.70;99.90
35277;DHT22;21401;50.878;8.050;2022-09-09T03:25:21;12.90;99.90
35277;DHT22;21401;50.878;8.050;2022-09-09T03:27:51;13.20;99.90
35277;DHT22;21401;50.878;8.050;2022-09-09T03:30:20;13.10;99.90
35277;DHT22;21401;50.878;8.050;2022-09-09T03:32:46;13.00;99.90
35277;DHT22;21401;50.878;8.050;2022-09-09T03:35:11;12.70;99.90
35277;DHT22;21401;50.878;8.050;2022-09-09T03:37:37;12.80;99.90
35277;DHT22;21401;50.878;8.050;2022-09-09T03:40:04;12.80;99.90
35277;DHT22;21401;50.878;8.050;2022-09-09T03:42:30;12.90;99.90
35277;DHT22;21401;50.878;8.050;2022-09-09T03:44:57;12.80;99.90
35277;DHT22;21401;50.878;8.050;2022-09-09T03:47:23;13.00;99.90
35277;DHT22;21401;50.878;8.050;2022-09-09T03:49:51;13.00;99.90
35277;DHT22;21401;50.878;8.050;2022-09-09T03:52:19;13.10;99.90
35277;DHT22;21401;50.878;8.050;2022-09-09T03:54:45;13.30;99.90
35277;DHT22;21401;50.878;8.050;2022-09-09T03:57:10;13.30;99.90
35277;DHT22;21401;50.878;8.050;2022-09-09T03:59:36;13.30;99.90
35277;DHT22;21401;50.878;8.050;2022-09-09T04:02:02;13.30;99.90
35277;DHT22;21401;50.878;8.050;2022-09-09T04:04:28;13.40;99.90
35277;DHT22;21401;50.878;8.050;2022-09-09T04:06:56;13.40;99.90
35277;DHT22;21401;50.878;8.050;2022-09-09T04:09:22;13.60;99.90
35277;DHT22;21401;50.878;8.050;2022-09-09T04:11:47;13.60;99.90
35277;DHT22;21401;50.878;8.050;2022-09-09T04:14:13;13.60;99.90
35277;DHT22;21401;50.878;8.050;2022-09-09T04:16:44;13.70;99.90
35277;DHT22;21401;50.878;8.050;2022-09-09T04:19:11;13.80;99.90
35277;DHT22;21401;50.878;8.050;2022-09-09T04:21:40;13.90;99.90
35277;DHT22;21401;50.878;8.050;2022-09-09T04:24:08;13.90;99.90
35277;DHT22;21401;50.878;8.050;2022-09-09T04:26:35;13.70;99.90
35277;DHT22;21401;50.878;8.050;2022-09-09T04:29:03;13.80;99.90
35277;DHT22;21401;50.878;8.050;2022-09-09T04:31:29;13.90;99.90
35277;DHT22;21401;50.878;8.050;2022-09-09T04:33:55;13.90;99.90
35277;DHT22;21401;50.878;8.050;2022-09-09T04:36:20;14.00;99.90
35277;DHT22;21401;50.878;8.050;2022-09-09T04:38:46;14.10;99.90
35277;DHT22;21401;50.878;8.050;2022-09-09T04:41:14;14.30;99.90
35277;DHT22;21401;50.878;8.050;2022-09-09T04:43:40;14.40;99.90
35277;DHT22;21401;50.878;8.050;2022-09-09T04:46:08;14.40;99.90
35277;DHT22;21401;50.878;8.050;2022-09-09T04:48:34;14.30;99.90
35277;DHT22;21401;50.878;8.050;2022-09-09T04:51:05;14.30;99.90
35277;DHT22;21401;50.878;8.050;2022-09-09T04:53:32;14.40;99.90
35277;DHT22;21401;50.878;8.050;2022-09-09T04:56:15;14.40;99.90
35277;DHT22;21401;50.878;8.050;2022-09-09T04:58:42;14.20;99.90
35277;DHT22;21401;50.878;8.050;2022-09-09T05:01:10;14.40;99.90
35277;DHT22;21401;50.878;8.050;2022-09-09T05:03:36;14.40;99.90
35277;DHT22;21401;50.878;8.050;2022-09-09T05:06:12;14.10;99.90
35277;DHT22;21401;50.878;8.050;2022-09-09T05:08:40;14.20;99.90
35277;DHT22;21401;50.878;8.050;2022-09-09T05:11:22;14.40;99.90
35277;DHT22;21401;50.878;8.050;2022-09-09T05:13:50;14.40;99.90
35277;DHT22;21401;50.878;8.050;2022-09-09T05:16:16;14.40;99.90
35277;DHT22;21401;50.878;8.050;2022-09-09T05:18:43;14.50;99.90
35277;DHT22;21401;50.878;8.050;2022-09-09T05:21:14;14.40;99.90
35277;DHT22;21401;50.878;8.050;2022-09-09T05:23:40;14.50;99.90
35277;DHT22;21401;50.878;8.050;2022-09-09T05:26:09;14.50;99.90
35277;DHT22;21401;50.878;8.050;2022-09-09T05:28:36;14.60;99.90
35277;DHT22;21401;50.878;8.050;2022-09-09T05:31:04;14.60;99.90
35277;DHT22;21401;50.878;8.050;2022-09-09T05:33:31;14.70;99.90
35277;DHT22;21401;50.878;8.050;2022-09-09T05:36:06;14.70;99.90
35277;DHT22;21401;50.878;8.050;2022-09-09T05:38:33;14.80;99.90
35277;DHT22;21401;50.878;8.050;2022-09-09T05:41:00;14.80;99.90
35277;DHT22;21401;50.878;8.050;2022-09-09T05:43:27;14.80;99.90
35277;DHT22;21401;50.878;8.050;2022-09-09T05:48:31;14.70;99.90
35277;DHT22;21401;50.878;8.050;2022-09-09T05:51:00;14.80;99.90
35277;DHT22;21401;50.878;8.050;2022-09-09T05:53:26;14.80;99.90
35277;DHT22;21401;50.878;8.050;2022-09-09T05:58:29;14.90;99.90
35277;DHT22;21401;50.878;8.050;2022-09-09T06:01:04;14.90;99.90
35277;DHT22;21401;50.878;8.050;2022-09-09T06:03:33;14.90;99.90
35277;DHT22;21401;50.878;8.050;2022-09-09T06:06:00;15.10;99.90
35277;DHT22;21401;50.878;8.050;2022-09-09T06:08:33;15.20;99.90
35277;DHT22;21401;50.878;8.050;2022-09-09T06:11:04;15.20;99.90
35277;DHT22;21401;50.878;8.050;2022-09-09T06:13:31;15.10;99.90
35277;DHT22;21401;50.878;8.050;2022-09-09T06:15:57;15.20;99.90
35277;DHT22;21401;50.878;8.050;2022-09-09T06:18:23;15.10;99.90
35277;DHT22;21401;50.878;8.050;2022-09-09T06:20:56;15.10;99.90
35277;DHT22;21401;50.878;8.050;2022-09-09T06:23:22;15.20;99.90
35277;DHT22;21401;50.878;8.050;2022-09-09T06:25:50;15.20;99.90
35277;DHT22;21401;50.878;8.050;2022-09-09T06:28:17;15.20;99.90
35277;DHT22;21401;50.878;8.050;2022-09-09T06:30:45;15.30;99.90
35277;DHT22;21401;50.878;8.050;2022-09-09T06:33:11;15.60;99.90
35277;DHT22;21401;50.878;8.050;2022-09-09T06:35:40;15.70;99.90
35277;DHT22;21401;50.878;8.050;2022-09-09T06:38:06;16.00;99.90
35277;DHT22;21401;50.878;8.050;2022-09-09T06:40:31;16.30;99.90
35277;DHT22;21401;50.878;8.050;2022-09-09T06:43:00;16.70;99.90
35277;DHT22;21401;50.878;8.050;2022-09-09T06:45:30;16.50;99.90
35277;DHT22;21401;50.878;8.050;2022-09-09T06:47:56;16.60;99.90
35277;DHT22;21401;50.878;8.050;2022-09-09T06:50:22;16.80;99.90
35277;DHT22;21401;50.878;8.050;2022-09-09T06:52:50;17.00;99.90
35277;DHT22;21401;50.878;8.050;2022-09-09T06:55:17;16.90;99.90
35277;DHT22;21401;50.878;8.050;2022-09-09T06:57:46;17.10;99.90
35277;DHT22;21401;50.878;8.050;2022-09-09T07:00:14;17.20;99.90
35277;DHT22;21401;50.878;8.050;2022-09-09T07:02:40;17.10;99.90
35277;DHT22;21401;50.878;8.050;2022-09-09T07:05:09;17.10;99.90
35277;DHT22;21401;50.878;8.050;2022-09-09T07:07:34;16.80;99.90
35277;DHT22;21401;50.878;8.050;2022-09-09T07:10:02;16.60;99.90
35277;DHT22;21401;50.878;8.050;2022-09-09T07:12:29;16.60;99.90
35277;DHT22;21401;50.878;8.050;2022-09-09T07:14:55;16.50;99.90
35277;DHT22;21401;50.878;8.050;2022-09-09T07:17:20;16.50;99.90
35277;DHT22;21401;50.878;8.050;2022-09-09T07:19:46;16.50;99.90
35277;DHT22;21401;50.878;8.050;2022-09-09T07:22:12;16.50;99.90
35277;DHT22;21401;50.878;8.050;2022-09-09T07:24:41;16.30;99.90
35277;DHT22;21401;50.878;8.050;2022-09-09T07:27:06;16.20;99.90
35277;DHT22;21401;50.878;8.050;2022-09-09T07:29:32;16.30;99.90
35277;DHT22;21401;50.878;8.050;2022-09-09T07:31:58;16.40;99.90
35277;DHT22;21401;50.878;8.050;2022-09-09T07:34:24;16.30;99.90
35277;DHT22;21401;50.878;8.050;2022-09-09T07:36:54;16.40;99.90
35277;DHT22;21401;50.878;8.050;2022-09-09T07:39:22;16.40;99.90
35277;DHT22;21401;50.878;8.050;2022-09-09T07:41:48;16.60;99.90
35277;DHT22;21401;50.878;8.050;2022-09-09T07:44:20;16.70;99.90
35277;DHT22;21401;50.878;8.050;2022-09-09T07:46:47;16.90;99.90
35277;DHT22;21401;50.878;8.050;2022-09-09T07:49:13;17.10;99.90
35277;DHT22;21401;50.878;8.050;2022-09-09T07:51:41;17.20;99.90
35277;DHT22;21401;50.878;8.050;2022-09-09T07:54:13;17.30;99.90
35277;DHT22;21401;50.878;8.050;2022-09-09T07:56:40;17.50;99.90
35277;DHT22;21401;50.878;8.050;2022-09-09T07:59:06;17.50;99.90
35277;DHT22;21401;50.878;8.050;2022-09-09T08:01:41;17.70;99.90
35277;DHT22;21401;50.878;8.050;2022-09-09T08:04:10;17.90;99.90
35277;DHT22;21401;50.878;8.050;2022-09-09T08:06:41;17.90;99.90
35277;DHT22;21401;50.878;8.050;2022-09-09T08:09:08;18.40;99.90
35277;DHT22;21401;50.878;8.050;2022-09-09T08:11:34;18.00;99.90
35277;DHT22;21401;50.878;8.050;2022-09-09T08:14:01;17.70;99.90
35277;DHT22;21401;50.878;8.050;2022-09-09T08:16:30;17.60;99.90
35277;DHT22;21401;50.878;8.050;2022-09-09T08:18:56;17.50;99.90
35277;DHT22;21401;50.878;8.050;2022-09-09T08:21:27;17.40;99.90
35277;DHT22;21401;50.878;8.050;2022-09-09T08:23:54;17.10;99.90
35277;DHT22;21401;50.878;8.050;2022-09-09T08:26:23;17.30;99.90
35277;DHT22;21401;50.878;8.050;2022-09-09T08:28:50;17.60;99.90
35277;DHT22;21401;50.878;8.050;2022-09-09T08:33:50;17.90;99.90
35277;DHT22;21401;50.878;8.050;2022-09-09T08:36:18;18.00;99.90
35277;DHT22;21401;50.878;8.050;2022-09-09T08:38:48;18.30;99.90
35277;DHT22;21401;50.878;8.050;2022-09-09T08:52:27;18.30;99.90
35277;DHT22;21401;50.878;8.050;2022-09-09T08:55:02;18.20;99.90
35277;DHT22;21401;50.878;8.050;2022-09-09T08:57:31;18.30;99.90
35277;DHT22;21401;50.878;8.050;2022-09-09T08:59:58;18.60;99.90
35277;DHT22;21401;50.878;8.050;2022-09-09T09:02:36;19.10;99.90
35277;DHT22;21401;50.878;8.050;2022-09-09T09:13:15;19.30;99.90
35277;DHT22;21401;50.878;8.050;2022-09-09T09:15:50;19.30;99.90
35277;DHT22;21401;50.878;8.050;2022-09-09T09:18:17;19.40;99.90
35277;DHT22;21401;50.878;8.050;2022-09-09T09:20:54;19.20;99.90
35277;DHT22;21401;50.878;8.050;2022-09-09T09:23:25;18.80;99.90
35277;DHT22;21401;50.878;8.050;2022-09-09T09:25:55;18.60;99.90
35277;DHT22;21401;50.878;8.050;2022-09-09T09:28:29;18.70;99.90
35277;DHT22;21401;50.878;8.050;2022-09-09T09:31:03;18.80;99.90
35277;DHT22;21401;50.878;8.050;2022-09-09T09:36:08;18.60;99.90
35277;DHT22;21401;50.878;8.050;2022-09-09T09:38:35;18.60;99.90
35277;DHT22;21401;50.878;8.050;2022-09-09T09:41:05;18.60;99.90
35277;DHT22;21401;50.878;8.050;2022-09-09T09:43:36;18.80;99.90
35277;DHT22;21401;50.878;8.050;2022-09-09T09:46:05;18.90;99.90
35277;DHT22;21401;50.878;8.050;2022-09-09T09:48:31;19.20;99.90
35277;DHT22;21401;50.878;8.050;2022-09-09T09:53:33;19.20;99.90
35277;DHT22;21401;50.878;8.050;2022-09-09T09:56:06;19.30;99.90
35277;DHT22;21401;50.878;8.050;2022-09-09T09:58:49;19.40;99.90
35277;DHT22;21401;50.878;8.050;2022-09-09T10:01:32;19.50;99.90
35277;DHT22;21401;50.878;8.050;2022-09-09T10:04:12;19.50;99.90
35277;DHT22;21401;50.878;8.050;2022-09-09T10:06:39;19.50;99.90
35277;DHT22;21401;50.878;8.050;2022-09-09T10:11:59;20.00;99.90
35277;DHT22;21401;50.878;8.050;2022-09-09T10:14:35;19.80;99.90
35277;DHT22;21401;50.878;8.050;2022-09-09T10:17:08;19.90;99.90
35277;DHT22;21401;50.878;8.050;2022-09-09T10:19:37;20.20;99.90
35277;DHT22;21401;50.878;8.050;2022-09-09T10:22:26;20.60;99.90
35277;DHT22;21401;50.878;8.050;2022-09-09T10:36:29;20.20;99.90
35277;DHT22;21401;50.878;8.050;2022-09-09T10:39:06;20.50;99.90
35277;DHT22;21401;50.878;8.050;2022-09-09T10:52:28;20.70;99.90
35277;DHT22;21401;50.878;8.050;2022-09-09T11:00:17;20.10;99.90
35277;DHT22;21401;50.878;8.050;2022-09-09T11:02:43;20.10;99.90
35277;DHT22;21401;50.878;8.050;2022-09-09T11:08:35;20.10;99.90
35277;DHT22;21401;50.878;8.050;2022-09-09T11:11:16;20.10;99.90
35277;DHT22;21401;50.878;8.050;2022-09-09T11:34:39;20.70;99.90
35277;DHT22;21401;50.878;8.050;2022-09-09T11:42:41;21.50;99.90
35277;DHT22;21401;50.878;8.050;2022-09-09T11:45:19;21.20;99.90
35277;DHT22;21401;50.878;8.050;2022-09-09T11:48:38;20.90;99.90
35277;DHT22;21401;50.878;8.050;2022-09-09T11:50:38;20.70;99.90
35277;DHT22;21401;50.878;8.050;2022-09-09T11:53:24;20.60;99.90
35277;DHT22;21401;50.878;8.050;2022-09-09T11:56:11;20.80;99.90
35277;DHT22;21401;50.878;8.050;2022-09-09T11:58:44;20.80;99.90
35277;DHT22;21401;50.878;8.050;2022-09-09T12:06:46;20.60;99.90
35277;DHT22;21401;50.878;8.050;2022-09-09T12:17:29;21.60;99.90
35277;DHT22;21401;50.878;8.050;2022-09-09T12:28:22;21.10;98.60
35277;DHT22;21401;50.878;8.050;2022-09-09T12:31:06;20.90;99.00
35277;DHT22;21401;50.878;8.050;2022-09-09T12:33:41;20.80;98.50
35277;DHT22;21401;50.878;8.050;2022-09-09T12:36:17;21.10;99.00
35277;DHT22;21401;50.878;8.050;2022-09-09T12:38:45;21.50;98.60
35277;DHT22;21401;50.878;8.050;2022-09-09T12:41:25;21.20;98.40
35277;DHT22;21401;50.878;8.050;2022-09-09T12:43:51;21.10;98.90
35277;DHT22;21401;50.878;8.050;2022-09-09T12:48:58;20.80;99.70
35277;DHT22;21401;50.878;8.050;2022-09-09T12:51:31;20.80;99.90
35277;DHT22;21401;50.878;8.050;2022-09-09T12:54:00;20.80;99.50
35277;DHT22;21401;50.878;8.050;2022-09-09T12:56:31;20.90;99.40
35277;DHT22;21401;50.878;8.050;2022-09-09T12:58:58;21.30;99.20
35277;DHT22;21401;50.878;8.050;2022-09-09T13:01:31;21.20;98.60
35277;DHT22;21401;50.878;8.050;2022-09-09T13:03:59;21.20;99.10
35277;DHT22;21401;50.878;8.050;2022-09-09T13:06:30;21.70;99.90
35277;DHT22;21401;50.878;8.050;2022-09-09T13:08:59;21.30;98.70
35277;DHT22;21401;50.878;8.050;2022-09-09T13:11:36;21.00;99.70
35277;DHT22;21401;50.878;8.050;2022-09-09T13:14:04;20.60;99.70
35277;DHT22;21401;50.878;8.050;2022-09-09T13:16:35;20.60;99.60
35277;DHT22;21401;50.878;8.050;2022-09-09T13:19:07;21.10;99.50
35277;DHT22;21401;50.878;8.050;2022-09-09T13:21:38;21.40;99.20
35277;DHT22;21401;50.878;8.050;2022-09-09T13:24:06;21.50;98.20
35277;DHT22;21401;50.878;8.050;2022-09-09T13:26:35;21.30;98.00
35277;DHT22;21401;50.878;8.050;2022-09-09T13:29:18;21.40;98.00
35277;DHT22;21401;50.878;8.050;2022-09-09T13:31:46;21.50;98.10
35277;DHT22;21401;50.878;8.050;2022-09-09T13:34:27;21.20;97.80
35277;DHT22;21401;50.878;8.050;2022-09-09T13:37:01;21.40;97.90
35277;DHT22;21401;50.878;8.050;2022-09-09T13:39:30;21.40;97.80
35277;DHT22;21401;50.878;8.050;2022-09-09T13:41:56;21.70;96.50
35277;DHT22;21401;50.878;8.050;2022-09-09T13:44:35;21.70;96.30
35277;DHT22;21401;50.878;8.050;2022-09-09T13:47:17;21.40;96.60
35277;DHT22;21401;50.878;8.050;2022-09-09T13:49:44;21.20;96.70
35277;DHT22;21401;50.878;8.050;2022-09-09T13:52:16;21.40;97.40
35277;DHT22;21401;50.878;8.050;2022-09-09T13:54:48;21.20;96.90
35277;DHT22;21401;50.878;8.050;2022-09-09T13:57:19;21.10;97.40
35277;DHT22;21401;50.878;8.050;2022-09-09T13:59:48;21.00;97.50
35277;DHT22;21401;50.878;8.050;2022-09-09T14:02:15;21.00;97.60
35277;DHT22;21401;50.878;8.050;2022-09-09T14:04:42;21.10;97.70
35277;DHT22;21401;50.878;8.050;2022-09-09T14:07:17;21.00;98.00
35277;DHT22;21401;50.878;8.050;2022-09-09T14:09:43;21.00;98.00
35277;DHT22;21401;50.878;8.050;2022-09-09T14:12:12;20.80;98.30
35277;DHT22;21401;50.878;8.050;2022-09-09T14:14:39;20.80;98.70
35277;DHT22;21401;50.878;8.050;2022-09-09T14:17:07;20.70;98.80
35277;DHT22;21401;50.878;8.050;2022-09-09T14:19:33;20.50;99.00
35277;DHT22;21401;50.878;8.050;2022-09-09T14:21:59;20.50;99.20
35277;DHT22;21401;50.878;8.050;2022-09-09T14:24:27;20.40;99.90
35277;DHT22;21401;50.878;8.050;2022-09-09T14:26:54;20.10;99.90
35277;DHT22;21401;50.878;8.050;2022-09-09T14:29:19;20.00;99.90
35277;DHT22;21401;50.878;8.050;2022-09-09T14:31:45;20.10;99.90
35277;DHT22;21401;50.878;8.050;2022-09-09T14:34:11;20.20;99.90
35277;DHT22;21401;50.878;8.050;2022-09-09T14:36:41;20.20;99.90
35277;DHT22;21401;50.878;8.050;2022-09-09T14:39:07;20.20;99.90
35277;DHT22;21401;50.878;8.050;2022-09-09T14:41:33;20.10;99.90
35277;DHT22;21401;50.878;8.050;2022-09-09T14:43:59;20.10;99.90
35277;DHT22;21401;50.878;8.050;2022-09-09T14:46:25;20.10;99.90
35277;DHT22;21401;50.878;8.050;2022-09-09T14:48:52;20.20;99.90
35277;DHT22;21401;50.878;8.050;2022-09-09T14:51:23;20.10;99.80
35277;DHT22;21401;50.878;8.050;2022-09-09T14:53:53;20.10;99.90
35277;DHT22;21401;50.878;8.050;2022-09-09T14:56:21;19.90;99.90
35277;DHT22;21401;50.878;8.050;2022-09-09T14:58:48;19.40;99.90
35277;DHT22;21401;50.878;8.050;2022-09-09T15:01:19;18.50;99.90
35277;DHT22;21401;50.878;8.050;2022-09-09T15:03:53;17.70;99.90
35277;DHT22;21401;50.878;8.050;2022-09-09T15:06:20;17.30;99.90
35277;DHT22;21401;50.878;8.050;2022-09-09T15:08:47;17.20;99.90
35277;DHT22;21401;50.878;8.050;2022-09-09T15:11:15;17.20;99.90
35277;DHT22;21401;50.878;8.050;2022-09-09T15:13:45;17.20;99.90
35277;DHT22;21401;50.878;8.050;2022-09-09T15:16:17;17.00;99.90
35277;DHT22;21401;50.878;8.050;2022-09-09T15:18:46;17.00;99.90
35277;DHT22;21401;50.878;8.050;2022-09-09T15:21:16;17.00;99.90
35277;DHT22;21401;50.878;8.050;2022-09-09T15:23:45;17.20;99.90
35277;DHT22;21401;50.878;8.050;2022-09-09T15:26:11;17.40;99.90
35277;DHT22;21401;50.878;8.050;2022-09-09T15:28:39;17.30;99.90
35277;DHT22;21401;50.878;8.050;2022-09-09T15:31:08;17.40;99.90
35277;DHT22;21401;50.878;8.050;2022-09-09T15:33:35;17.40;99.90
35277;DHT22;21401;50.878;8.050;2022-09-09T15:36:24;17.60;99.90
35277;DHT22;21401;50.878;8.050;2022-09-09T15:38:50;17.80;99.90
35277;DHT22;21401;50.878;8.050;2022-09-09T15:41:18;17.80;99.90
35277;DHT22;21401;50.878;8.050;2022-09-09T15:43:52;17.90;99.90
35277;DHT22;21401;50.878;8.050;2022-09-09T15:46:25;17.80;99.90
35277;DHT22;21401;50.878;8.050;2022-09-09T15:48:55;17.50;99.90
35277;DHT22;21401;50.878;8.050;2022-09-09T15:51:22;17.40;99.90
35277;DHT22;21401;50.878;8.050;2022-09-09T15:53:49;17.20;99.90
35277;DHT22;21401;50.878;8.050;2022-09-09T15:56:18;17.30;99.90
35277;DHT22;21401;50.878;8.050;2022-09-09T15:58:43;17.30;99.90
35277;DHT22;21401;50.878;8.050;2022-09-09T16:01:10;17.20;99.90
35277;DHT22;21401;50.878;8.050;2022-09-09T16:03:39;17.20;99.90
35277;DHT22;21401;50.878;8.050;2022-09-09T16:06:08;17.10;99.90
35277;DHT22;21401;50.878;8.050;2022-09-09T16:08:38;17.10;99.90
35277;DHT22;21401;50.878;8.050;2022-09-09T16:11:18;17.20;99.90
35277;DHT22;21401;50.878;8.050;2022-09-09T16:13:48;17.10;99.90
35277;DHT22;21401;50.878;8.050;2022-09-09T16:16:16;17.10;99.90
35277;DHT22;21401;50.878;8.050;2022-09-09T16:18:47;17.20;99.90
35277;DHT22;21401;50.878;8.050;2022-09-09T16:21:23;17.20;99.90
35277;DHT22;21401;50.878;8.050;2022-09-09T16:23:51;17.00;99.90
35277;DHT22;21401;50.878;8.050;2022-09-09T16:26:18;17.10;99.90
35277;DHT22;21401;50.878;8.050;2022-09-09T16:28:44;17.00;99.90
35277;DHT22;21401;50.878;8.050;2022-09-09T16:31:16;17.00;99.90
35277;DHT22;21401;50.878;8.050;2022-09-09T16:33:43;16.90;99.90
35277;DHT22;21401;50.878;8.050;2022-09-09T16:36:13;16.80;99.90
35277;DHT22;21401;50.878;8.050;2022-09-09T16:38:41;16.80;99.90
35277;DHT22;21401;50.878;8.050;2022-09-09T16:41:09;16.60;99.90
35277;DHT22;21401;50.878;8.050;2022-09-09T16:43:37;16.60;99.90
35277;DHT22;21401;50.878;8.050;2022-09-09T16:46:08;16.70;99.90
35277;DHT22;21401;50.878;8.050;2022-09-09T16:48:39;16.70;99.90
35277;DHT22;21401;50.878;8.050;2022-09-09T16:51:06;16.80;99.90
35277;DHT22;21401;50.878;8.050;2022-09-09T16:53:33;16.70;99.90
35277;DHT22;21401;50.878;8.050;2022-09-09T16:56:07;16.70;99.90
35277;DHT22;21401;50.878;8.050;2022-09-09T16:58:34;16.60;99.90
35277;DHT22;21401;50.878;8.050;2022-09-09T17:01:03;16.50;99.90
35277;DHT22;21401;50.878;8.050;2022-09-09T17:03:30;16.50;99.90
35277;DHT22;21401;50.878;8.050;2022-09-09T17:05:57;16.40;99.90
35277;DHT22;21401;50.878;8.050;2022-09-09T17:08:25;16.40;99.90
35277;DHT22;21401;50.878;8.050;2022-09-09T17:10:51;16.30;99.90
35277;DHT22;21401;50.878;8.050;2022-09-09T17:13:16;16.30;99.90
35277;DHT22;21401;50.878;8.050;2022-09-09T17:15:45;16.20;99.90
35277;DHT22;21401;50.878;8.050;2022-09-09T17:18:13;16.00;99.90
35277;DHT22;21401;50.878;8.050;2022-09-09T17:20:40;16.00;99.90
35277;DHT22;21401;50.878;8.050;2022-09-09T17:23:07;16.10;99.90
35277;DHT22;21401;50.878;8.050;2022-09-09T17:25:33;16.10;99.90
35277;DHT22;21401;50.878;8.050;2022-09-09T17:27:59;16.00;99.90
35277;DHT22;21401;50.878;8.050;2022-09-09T17:30:26;16.00;99.90
35277;DHT22;21401;50.878;8.050;2022-09-09T17:32:54;16.00;99.90
35277;DHT22;21401;50.878;8.050;2022-09-09T17:35:19;15.80;99.90
35277;DHT22;21401;50.878;8.050;2022-09-09T17:37:45;15.90;99.90
35277;DHT22;21401;50.878;8.050;2022-09-09T17:40:11;15.80;99.90
35277;DHT22;21401;50.878;8.050;2022-09-09T17:42:36;15.80;99.90
35277;DHT22;21401;50.878;8.050;2022-09-09T17:45:06;15.80;99.90
35277;DHT22;21401;50.878;8.050;2022-09-09T17:47:31;15.90;99.90
35277;DHT22;21401;50.878;8.050;2022-09-09T17:49:57;15.80;99.90
35277;DHT22;21401;50.878;8.050;2022-09-09T17:52:22;15.80;99.90
35277;DHT22;21401;50.878;8.050;2022-09-09T17:54:48;15.80;99.90
35277;DHT22;21401;50.878;8.050;2022-09-09T17:57:15;15.60;99.90
35277;DHT22;21401;50.878;8.050;2022-09-09T17:59:44;15.60;99.90
35277;DHT22;21401;50.878;8.050;2022-09-09T18:02:11;15.60;99.90
35277;DHT22;21401;50.878;8.050;2022-09-09T18:04:39;15.60;99.90
35277;DHT22;21401;50.878;8.050;2022-09-09T18:07:05;15.60;99.90
35277;DHT22;21401;50.878;8.050;2022-09-09T18:09:31;15.70;99.90
35277;DHT22;21401;50.878;8.050;2022-09-09T18:11:58;15.80;99.90
35277;DHT22;21401;50.878;8.050;2022-09-09T18:14:27;15.80;99.90
35277;DHT22;21401;50.878;8.050;2022-09-09T18:16:57;15.70;99.90
35277;DHT22;21401;50.878;8.050;2022-09-09T18:19:27;15.70;99.90
35277;DHT22;21401;50.878;8.050;2022-09-09T18:21:53;15.70;99.90